Time;durP1;ratioP1;P1;durP2;ratioP2;P2;SDS_P1;SDS_P2;PMS_P1;PMS_P2;Temp;Humidity;BMP_temperature;BMP_pressure;BME280_temperature;BME280_humidity;BME280_pressure;Samples;Min_cycle;Max_cycle;Signal;HPM_P1;HPM_P2
2022/05/28 00:01:50;;;;;;;16.23;14.63;;;11.10;99.90;;;;;;4974645;28;20051;-77
2022/05/28 00:04:17;;;;;;;16.98;15.27;;;11.10;99.90;;;;;;4975145;28;20046;-79
2022/05/28 00:06:46;;;;;;;18.27;16.42;;;11.10;99.90;;;;;;4993595;28;20046;-78
2022/05/28 00:09:16;;;;;;;18.60;16.15;;;11.10;99.90;;;;;;4991409;28;20046;-79
2022/05/28 00:11:46;;;;;;;17.52;15.82;;;11.10;99.90;;;;;;4991317;28;20097;-78
2022/05/28 00:14:14;;;;;;;18.00;16.08;;;11.10;99.90;;;;;;4971154;28;20256;-79
2022/05/28 00:16:41;;;;;;;17.80;16.13;;;11.10;99.90;;;;;;4992902;28;20462;-77
2022/05/28 00:19:09;;;;;;;17.73;15.90;;;11.10;99.90;;;;;;4973991;28;20050;-78
2022/05/28 00:21:37;;;;;;;18.55;16.38;;;11.10;99.90;;;;;;4992225;28;20043;-77
2022/05/28 00:24:07;;;;;;;17.73;16.00;;;11.10;99.90;;;;;;4992665;28;20054;-78
2022/05/28 00:26:34;;;;;;;19.38;17.48;;;11.10;99.90;;;;;;4992836;28;20863;-79
2022/05/28 00:29:01;;;;;;;18.10;16.30;;;11.10;99.90;;;;;;4990034;28;20417;-78
2022/05/28 00:31:31;;;;;;;18.20;16.35;;;11.10;99.90;;;;;;4992155;28;20129;-78
2022/05/28 00:34:02;;;;;;;18.55;16.58;;;11.10;99.90;;;;;;4992070;28;20058;-78
2022/05/28 00:36:29;;;;;;;17.92;15.98;;;11.10;99.90;;;;;;4991049;28;20117;-80
2022/05/28 00:38:56;;;;;;;16.85;15.25;;;11.10;99.90;;;;;;4975051;28;20073;-79
2022/05/28 00:41:25;;;;;;;18.20;16.30;;;11.10;99.90;;;;;;4990802;28;20070;-79
2022/05/28 00:43:52;;;;;;;18.63;16.73;;;11.10;99.90;;;;;;4991732;28;20532;-79
2022/05/28 00:46:25;;;;;;;21.45;16.95;;;11.10;99.90;;;;;;4990000;28;20054;-78
2022/05/28 00:48:58;;;;;;;17.13;15.60;;;11.10;99.90;;;;;;4990700;28;20042;-78
2022/05/28 00:51:30;;;;;;;16.92;15.30;;;11.10;99.90;;;;;;4965440;28;20046;-76
2022/05/28 00:54:02;;;;;;;17.13;15.38;;;11.00;99.90;;;;;;4992793;28;20047;-78
2022/05/28 00:56:31;;;;;;;18.35;16.48;;;11.00;99.90;;;;;;4991804;28;20061;-78
2022/05/28 00:58:59;;;;;;;18.25;16.35;;;11.10;99.90;;;;;;4991636;28;20097;-79
2022/05/28 01:01:30;;;;;;;20.08;16.92;;;11.10;99.90;;;;;;4974270;28;20133;-77
2022/05/28 01:04:15;;;;;;;19.05;17.25;;;11.10;99.90;;;;;;4990842;28;20509;-76
2022/05/28 01:06:51;;;;;;;19.05;17.25;;;11.10;99.90;;;;;;4991924;28;20533;-76
2022/05/28 01:09:27;;;;;;;20.88;18.63;;;11.10;99.90;;;;;;4990107;28;20050;-73
2022/05/28 01:12:06;;;;;;;20.23;18.13;;;11.10;99.90;;;;;;4991596;28;20038;-73
2022/05/28 01:14:45;;;;;;;20.15;18.15;;;11.10;99.90;;;;;;4973845;28;20057;-73
2022/05/28 01:17:17;;;;;;;20.73;18.63;;;11.10;99.90;;;;;;4991417;28;20450;-75
2022/05/28 01:19:57;;;;;;;21.90;19.60;;;11.10;99.90;;;;;;4973684;28;20150;-75
2022/05/28 01:22:49;;;;;;;20.48;18.38;;;11.10;99.90;;;;;;4990174;28;20520;-75
2022/05/28 01:25:25;;;;;;;20.98;18.88;;;11.10;99.90;;;;;;4990001;28;20058;-75
2022/05/28 01:28:02;;;;;;;21.50;19.20;;;11.10;99.90;;;;;;4991077;28;20097;-74
2022/05/28 01:30:30;;;;;;;19.67;17.58;;;11.10;99.90;;;;;;4990431;28;20054;-75
2022/05/28 01:32:59;;;;;;;20.05;17.55;;;11.10;99.90;;;;;;4991418;28;20069;-77
2022/05/28 01:35:30;;;;;;;19.83;17.75;;;11.00;99.90;;;;;;4991125;28;20070;-76
2022/05/28 01:37:59;;;;;;;19.05;17.10;;;11.00;99.90;;;;;;4957696;28;20470;-77
2022/05/28 01:40:30;;;;;;;19.55;17.42;;;11.00;99.90;;;;;;4990233;28;20058;-78
2022/05/28 01:43:03;;;;;;;19.98;17.98;;;10.90;99.90;;;;;;4991206;28;20510;-77
2022/05/28 01:45:32;;;;;;;19.23;17.23;;;10.90;99.90;;;;;;4957582;28;20047;-79
2022/05/28 01:48:04;;;;;;;23.25;17.48;;;11.00;99.90;;;;;;4990130;28;20043;-77
2022/05/28 01:50:36;;;;;;;19.93;17.83;;;11.00;99.90;;;;;;4990509;28;20512;-78
2022/05/28 01:53:07;;;;;;;19.45;17.48;;;11.00;99.90;;;;;;4973565;28;20301;-77
2022/05/28 01:55:40;;;;;;;19.05;17.05;;;11.00;99.90;;;;;;4991413;28;20051;-78
2022/05/28 01:58:09;;;;;;;19.25;17.25;;;11.10;99.90;;;;;;4991775;28;20046;-77
2022/05/28 02:00:37;;;;;;;18.52;16.42;;;11.00;99.90;;;;;;4994772;28;20138;-77
2022/05/28 02:03:06;;;;;;;18.63;16.73;;;11.10;99.90;;;;;;4962838;28;20070;-77
2022/05/28 02:05:33;;;;;;;20.80;18.33;;;11.10;99.90;;;;;;4994611;28;20053;-78
2022/05/28 02:08:01;;;;;;;20.50;18.40;;;11.10;99.90;;;;;;4985867;28;20047;-77
2022/05/28 02:10:29;;;;;;;18.75;16.85;;;11.10;99.90;;;;;;4994490;28;20050;-78
2022/05/28 02:13:06;;;;;;;20.25;18.13;;;11.10;99.90;;;;;;4994871;28;20046;-78
2022/05/28 02:15:45;;;;;;;19.92;16.77;;;11.10;99.90;;;;;;4976208;28;20621;-77
2022/05/28 02:18:21;;;;;;;18.88;16.95;;;11.10;99.90;;;;;;4982607;28;20057;-78
2022/05/28 02:21:00;;;;;;;18.25;15.85;;;11.20;99.90;;;;;;4977293;28;20050;-78
2022/05/28 02:23:32;;;;;;;18.50;16.60;;;11.10;99.90;;;;;;4993243;28;20057;-78
2022/05/28 02:26:06;;;;;;;17.00;15.27;;;11.20;99.90;;;;;;4972767;28;20515;-78
2022/05/28 02:28:35;;;;;;;15.18;13.63;;;11.20;99.90;;;;;;4992381;28;20050;-79
2022/05/28 02:31:15;;;;;;;16.10;13.70;;;11.30;99.90;;;;;;4994823;28;20061;-79
2022/05/28 02:33:44;;;;;;;16.92;15.13;;;11.30;99.90;;;;;;4959822;28;20104;-78
2022/05/28 02:36:13;;;;;;;16.85;13.23;;;11.40;99.90;;;;;;4991615;28;20042;-78
2022/05/28 02:38:41;;;;;;;17.25;14.82;;;11.40;99.90;;;;;;4994533;28;20405;-78
2022/05/28 02:41:09;;;;;;;16.23;13.50;;;11.40;99.90;;;;;;4992924;28;20078;-77
2022/05/28 02:43:36;;;;;;;15.20;13.65;;;11.40;99.90;;;;;;4976138;28;20162;-78
2022/05/28 02:46:06;;;;;;;15.18;13.68;;;11.40;99.90;;;;;;4994361;28;20085;-77
2022/05/28 02:48:39;;;;;;;15.88;14.27;;;11.50;99.90;;;;;;4993464;28;20467;-77
2022/05/28 02:51:09;;;;;;;15.88;14.25;;;11.50;99.90;;;;;;4994305;28;20051;-78
2022/05/28 02:53:37;;;;;;;17.63;13.38;;;11.50;99.90;;;;;;4992878;28;20051;-76
2022/05/28 02:56:05;;;;;;;15.60;14.07;;;11.50;99.90;;;;;;4993537;28;20046;-77
2022/05/28 02:58:33;;;;;;;15.27;13.73;;;11.50;99.90;;;;;;4993724;28;20054;-77
2022/05/28 03:01:03;;;;;;;15.20;13.70;;;11.60;99.90;;;;;;4993450;28;20054;-77
2022/05/28 03:03:31;;;;;;;16.02;13.10;;;11.60;99.90;;;;;;4992654;28;20151;-78
2022/05/28 03:05:59;;;;;;;14.80;13.15;;;11.70;99.90;;;;;;4991028;28;20150;-79
2022/05/28 03:08:27;;;;;;;15.30;13.70;;;11.70;99.90;;;;;;4993009;28;20052;-78
2022/05/28 03:10:54;;;;;;;13.40;12.05;;;11.70;99.90;;;;;;4974169;28;20057;-79
2022/05/28 03:13:21;;;;;;;14.23;12.60;;;11.70;99.90;;;;;;4989751;28;20422;-78
2022/05/28 03:15:49;;;;;;;15.07;12.85;;;11.70;99.90;;;;;;4971247;28;20097;-78
2022/05/28 03:18:16;;;;;;;13.15;11.82;;;11.70;99.90;;;;;;4993435;28;20081;-79
2022/05/28 03:20:44;;;;;;;12.70;11.27;;;11.70;99.90;;;;;;4975140;28;20499;-79
2022/05/28 03:23:12;;;;;;;14.52;12.57;;;11.70;99.90;;;;;;4993575;28;20046;-80
2022/05/28 03:25:40;;;;;;;13.05;11.70;;;11.70;99.90;;;;;;4992041;28;20058;-76
2022/05/28 03:28:07;;;;;;;13.65;11.75;;;11.70;99.90;;;;;;4974268;28;20052;-77
2022/05/28 03:30:34;;;;;;;13.85;12.23;;;11.80;99.90;;;;;;4992404;28;20124;-78
2022/05/28 03:33:06;;;;;;;17.92;13.70;;;11.90;99.90;;;;;;4975040;28;20042;-76
2022/05/28 03:35:33;;;;;;;14.85;12.50;;;11.90;99.90;;;;;;4975662;28;20507;-77
2022/05/28 03:38:01;;;;;;;14.30;12.45;;;11.90;99.90;;;;;;4992671;28;20165;-77
2022/05/28 03:40:33;;;;;;;14.98;13.48;;;11.80;99.90;;;;;;4991694;28;20058;-73
2022/05/28 03:43:01;;;;;;;17.52;12.35;;;11.80;99.90;;;;;;4992304;28;20141;-73
2022/05/28 03:45:29;;;;;;;14.77;13.18;;;11.80;99.90;;;;;;4976113;28;20057;-74
2022/05/28 03:47:56;;;;;;;14.23;12.70;;;11.80;99.90;;;;;;4954114;28;20341;-74
2022/05/28 03:50:24;;;;;;;18.20;12.95;;;11.80;99.90;;;;;;4970485;28;20054;-74
2022/05/28 03:52:51;;;;;;;13.43;12.13;;;11.90;99.90;;;;;;4990485;28;20493;-74
2022/05/28 03:55:19;;;;;;;12.82;11.55;;;11.90;99.90;;;;;;4991623;28;20046;-74
2022/05/28 03:57:47;;;;;;;14.82;12.02;;;11.90;99.90;;;;;;4975182;28;20096;-74
2022/05/28 04:00:17;;;;;;;13.98;12.70;;;12.00;99.90;;;;;;4990943;28;20050;-74
2022/05/28 04:02:44;;;;;;;14.00;12.05;;;12.10;99.90;;;;;;4991679;28;20050;-78
2022/05/28 04:05:12;;;;;;;13.82;12.50;;;12.10;99.90;;;;;;4974325;28;20046;-78
2022/05/28 04:07:41;;;;;;;13.68;12.25;;;12.10;99.90;;;;;;4992134;28;20050;-78
2022/05/28 04:10:10;;;;;;;14.73;12.20;;;12.20;99.90;;;;;;4991175;28;20132;-78
2022/05/28 04:12:39;;;;;;;13.98;12.75;;;12.20;99.90;;;;;;4958705;28;20150;-77
2022/05/28 04:15:10;;;;;;;15.15;13.65;;;12.20;99.90;;;;;;4958450;28;20050;-73
2022/05/28 04:17:39;;;;;;;14.07;12.57;;;12.20;99.90;;;;;;4992229;28;20062;-74
2022/05/28 04:20:11;;;;;;;13.18;11.93;;;12.20;99.90;;;;;;4990233;28;20061;-74
2022/05/28 04:22:38;;;;;;;12.93;11.57;;;12.20;99.90;;;;;;4972428;28;20695;-74
2022/05/28 04:25:08;;;;;;;15.18;11.65;;;12.30;99.90;;;;;;4992401;28;20141;-73
2022/05/28 04:27:35;;;;;;;13.77;12.40;;;12.30;99.90;;;;;;4992077;28;20407;-74
2022/05/28 04:30:03;;;;;;;13.95;12.48;;;12.30;99.90;;;;;;4983492;28;20063;-77
2022/05/28 04:32:32;;;;;;;14.32;12.93;;;12.30;99.90;;;;;;4988985;28;20053;-78
2022/05/28 04:34:59;;;;;;;14.50;12.95;;;12.30;99.90;;;;;;4988875;28;20062;-78
2022/05/28 04:37:27;;;;;;;17.52;13.57;;;12.30;99.90;;;;;;4989875;28;20069;-78
2022/05/28 04:39:54;;;;;;;14.77;13.07;;;12.20;99.90;;;;;;4990269;28;20049;-77
2022/05/28 04:42:21;;;;;;;14.80;13.30;;;12.20;99.90;;;;;;4958275;28;20422;-78
2022/05/28 04:44:49;;;;;;;15.35;13.63;;;12.20;99.90;;;;;;4991226;28;20178;-77
2022/05/28 04:47:16;;;;;;;16.17;14.38;;;12.20;99.90;;;;;;4991814;28;20050;-77
2022/05/28 04:49:45;;;;;;;16.20;13.80;;;12.20;99.90;;;;;;4957708;28;20558;-77
2022/05/28 04:52:12;;;;;;;15.82;13.73;;;12.20;99.90;;;;;;4990388;28;20530;-79
2022/05/28 04:54:43;;;;;;;19.98;14.18;;;12.20;99.90;;;;;;4991413;28;20051;-78
2022/05/28 04:57:18;;;;;;;16.52;14.68;;;12.30;99.90;;;;;;4959039;28;20563;-77
2022/05/28 04:59:51;;;;;;;15.75;13.98;;;12.30;99.90;;;;;;4990821;28;20054;-78
2022/05/28 05:02:18;;;;;;;14.75;13.25;;;12.40;99.90;;;;;;4964492;28;20043;-79
2022/05/28 05:04:47;;;;;;;16.95;13.52;;;12.50;99.90;;;;;;4976679;28;20114;-78
2022/05/28 05:07:14;;;;;;;14.25;12.80;;;12.50;99.90;;;;;;4967010;28;20059;-79
2022/05/28 05:09:41;;;;;;;14.95;13.40;;;12.50;99.90;;;;;;4988005;28;20050;-78
2022/05/28 05:12:10;;;;;;;15.50;12.93;;;12.60;99.90;;;;;;4991437;28;20405;-78
2022/05/28 05:14:37;;;;;;;19.83;14.13;;;12.60;99.90;;;;;;4955178;28;20154;-78
2022/05/28 05:17:05;;;;;;;14.65;13.15;;;12.60;99.90;;;;;;4981031;28;20116;-78
2022/05/28 05:19:32;;;;;;;16.40;14.68;;;12.60;99.90;;;;;;4972529;28;20050;-78
2022/05/28 05:22:01;;;;;;;18.27;13.88;;;12.60;99.90;;;;;;4991536;28;20056;-78
2022/05/28 05:24:28;;;;;;;15.30;13.68;;;12.50;99.90;;;;;;4989374;28;20046;-78
2022/05/28 05:26:57;;;;;;;16.27;14.13;;;12.50;99.90;;;;;;4990434;28;20064;-78
2022/05/28 05:29:24;;;;;;;14.93;13.43;;;12.50;99.90;;;;;;4982847;28;20050;-79
2022/05/28 05:31:51;;;;;;;27.75;16.23;;;12.50;99.90;;;;;;4991239;28;20054;-79
2022/05/28 05:34:19;;;;;;;20.00;15.73;;;12.50;99.90;;;;;;4985629;28;20066;-76
2022/05/28 05:36:46;;;;;;;15.43;13.80;;;12.50;99.90;;;;;;4962968;28;20079;-78
2022/05/28 05:39:18;;;;;;;15.90;13.95;;;12.60;99.90;;;;;;4989634;28;20532;-77
2022/05/28 05:41:45;;;;;;;19.10;13.77;;;12.60;99.90;;;;;;4958062;28;20514;-78
2022/05/28 05:44:14;;;;;;;13.70;12.43;;;12.50;99.90;;;;;;4957536;28;20068;-74
2022/05/28 05:46:42;;;;;;;16.15;14.52;;;12.50;99.90;;;;;;4990144;28;20054;-74
2022/05/28 05:49:11;;;;;;;17.83;14.30;;;12.50;99.90;;;;;;4990912;28;20390;-73
2022/05/28 05:51:44;;;;;;;15.27;13.68;;;12.50;99.90;;;;;;4990562;28;20510;-77
2022/05/28 05:54:12;;;;;;;15.60;13.93;;;12.60;99.90;;;;;;4990740;28;20145;-77
2022/05/28 05:56:41;;;;;;;14.90;13.27;;;12.70;99.90;;;;;;4970713;28;20093;-75
2022/05/28 05:59:09;;;;;;;15.00;13.32;;;12.80;99.90;;;;;;4991080;28;20478;-74
2022/05/28 06:01:37;;;;;;;14.77;12.63;;;12.80;99.90;;;;;;4987048;28;20046;-74
2022/05/28 06:04:05;;;;;;;15.00;12.70;;;12.80;99.90;;;;;;4998291;28;20498;-76
2022/05/28 06:06:33;;;;;;;17.25;15.40;;;12.80;99.90;;;;;;4986166;28;20422;-76
2022/05/28 06:09:00;;;;;;;17.33;15.20;;;12.90;99.90;;;;;;4988114;28;20043;-74
2022/05/28 06:11:28;;;;;;;16.50;14.88;;;12.90;99.90;;;;;;4961764;28;20042;-75
2022/05/28 06:13:57;;;;;;;16.05;14.35;;;13.00;99.90;;;;;;4985199;28;20530;-75
2022/05/28 06:16:25;;;;;;;18.55;15.82;;;13.10;99.90;;;;;;4973835;28;20108;-75
2022/05/28 06:18:52;;;;;;;16.00;14.40;;;13.20;99.90;;;;;;4972604;28;20058;-74
2022/05/28 06:21:20;;;;;;;15.98;14.27;;;13.20;99.90;;;;;;4990852;28;20621;-75
2022/05/28 06:23:47;;;;;;;15.30;13.75;;;13.20;99.90;;;;;;4989535;28;20050;-75
2022/05/28 06:26:15;;;;;;;16.52;14.48;;;13.30;99.90;;;;;;4990977;28;20560;-75
2022/05/28 06:28:43;;;;;;;15.40;12.68;;;13.40;99.90;;;;;;4990086;28;20349;-76
2022/05/28 06:31:14;;;;;;;14.93;12.80;;;13.50;99.90;;;;;;4987325;28;20502;-78
2022/05/28 06:33:42;;;;;;;15.50;12.45;;;13.60;99.90;;;;;;4974139;28;20125;-79
2022/05/28 06:36:12;;;;;;;14.23;12.85;;;13.70;99.90;;;;;;4984933;28;20074;-78
2022/05/28 06:38:40;;;;;;;12.65;11.35;;;13.80;99.90;;;;;;4953289;28;20046;-78
2022/05/28 06:41:11;;;;;;;14.02;11.77;;;13.80;99.90;;;;;;4984356;28;20054;-79
2022/05/28 06:43:40;;;;;;;12.93;10.80;;;13.70;99.90;;;;;;4955927;28;20054;-80
2022/05/28 06:46:11;;;;;;;14.18;10.80;;;13.70;99.90;;;;;;4996343;28;20116;-80
2022/05/28 06:48:39;;;;;;;13.40;11.32;;;13.80;99.90;;;;;;5003766;28;20467;-81
2022/05/28 06:51:08;;;;;;;15.63;10.80;;;13.80;99.90;;;;;;5002873;28;20088;-80
2022/05/28 06:53:38;;;;;;;13.10;10.88;;;13.90;99.90;;;;;;4968862;28;20085;-79
2022/05/28 06:56:08;;;;;;;15.48;10.63;;;13.90;99.90;;;;;;4981028;28;20050;-76
2022/05/28 06:58:36;;;;;;;12.43;11.02;;;13.80;99.90;;;;;;4988820;28;20485;-76
2022/05/28 07:01:06;;;;;;;12.10;10.70;;;13.80;99.90;;;;;;4987396;28;20100;-75
2022/05/28 07:03:36;;;;;;;20.38;12.73;;;13.80;99.90;;;;;;4979014;28;20134;-74
2022/05/28 07:06:05;;;;;;;14.98;12.48;;;13.80;99.90;;;;;;4997705;28;20141;-75
2022/05/28 07:08:33;;;;;;;10.95;9.95;;;13.80;99.90;;;;;;4963267;28;20062;-75
2022/05/28 07:11:02;;;;;;;12.23;10.65;;;13.70;99.90;;;;;;4991798;28;20154;-74
2022/05/28 07:13:30;;;;;;;11.15;10.10;;;13.70;99.90;;;;;;5000689;28;20049;-74
2022/05/28 07:15:58;;;;;;;10.75;9.50;;;13.70;99.90;;;;;;4994496;28;20068;-78
2022/05/28 07:18:27;;;;;;;12.20;10.40;;;13.80;99.90;;;;;;4987058;28;20454;-77
2022/05/28 07:20:56;;;;;;;12.20;10.55;;;13.80;99.90;;;;;;4981663;28;20043;-74
2022/05/28 07:23:30;;;;;;;12.13;10.52;;;13.80;99.90;;;;;;4985835;28;20589;-74
2022/05/28 07:26:10;;;;;;;10.40;9.27;;;13.80;99.90;;;;;;4998644;28;20470;-75
2022/05/28 07:28:40;;;;;;;10.23;9.25;;;13.80;99.90;;;;;;4983950;28;20054;-75
2022/05/28 07:31:10;;;;;;;10.15;8.73;;;13.80;99.90;;;;;;4976940;28;20053;-77
2022/05/28 07:33:40;;;;;;;11.35;9.27;;;13.70;99.90;;;;;;4993446;28;20152;-77
2022/05/28 07:36:11;;;;;;;10.68;9.52;;;13.70;99.90;;;;;;4974276;28;20139;-76
2022/05/28 07:39:02;;;;;;;10.45;8.85;;;13.60;99.90;;;;;;4991404;28;20050;-75
2022/05/28 07:41:37;;;;;;;11.80;9.57;;;13.60;99.90;;;;;;4961697;28;20467;-74
2022/05/28 07:44:05;;;;;;;10.48;9.48;;;13.70;99.90;;;;;;4990637;28;20430;-75
2022/05/28 07:46:34;;;;;;;10.38;9.27;;;13.80;99.90;;;;;;5012732;28;20049;-80
2022/05/28 07:49:03;;;;;;;10.68;9.68;;;13.80;99.90;;;;;;5001030;28;20582;-80
2022/05/28 07:51:32;;;;;;;12.25;9.65;;;13.80;99.90;;;;;;4982067;28;20126;-78
2022/05/28 07:53:59;;;;;;;10.30;9.27;;;13.80;99.90;;;;;;4998948;28;20050;-78
2022/05/28 07:56:28;;;;;;;11.57;10.48;;;13.90;99.90;;;;;;5002985;28;20149;-79
2022/05/28 07:58:56;;;;;;;10.95;9.40;;;13.90;99.90;;;;;;4999291;28;20417;-80
2022/05/28 08:01:27;;;;;;;9.95;9.07;;;14.00;99.90;;;;;;4998141;28;20153;-80
2022/05/28 08:03:56;;;;;;;12.35;10.07;;;14.10;99.90;;;;;;5002683;28;20050;-81
2022/05/28 08:06:23;;;;;;;14.38;11.00;;;14.30;99.90;;;;;;5000809;28;20050;-79
2022/05/28 08:08:53;;;;;;;14.18;10.25;;;14.40;99.90;;;;;;5000676;28;20562;-79
2022/05/28 08:11:21;;;;;;;10.50;9.60;;;14.40;99.90;;;;;;4998455;28;20061;-79
2022/05/28 08:13:54;;;;;;;11.45;10.02;;;14.50;99.90;;;;;;4990008;28;20109;-78
2022/05/28 08:16:22;;;;;;;11.23;10.00;;;14.70;99.90;;;;;;4978090;28;20129;-76
2022/05/28 08:18:51;;;;;;;9.90;8.90;;;14.90;99.90;;;;;;4999999;28;20057;-78
2022/05/28 08:24:07;;;;;;;9.32;8.43;;;15.20;99.90;;;;;;4996239;28;20517;-77
2022/05/28 08:26:36;;;;;;;9.73;8.90;;;15.40;99.90;;;;;;5000221;28;20617;-77
2022/05/28 08:29:04;;;;;;;10.65;8.32;;;15.60;99.90;;;;;;4980822;28;20075;-77
2022/05/28 08:31:32;;;;;;;10.65;9.55;;;15.70;99.90;;;;;;4991525;28;20203;-79
2022/05/28 08:34:00;;;;;;;11.55;8.75;;;15.70;99.90;;;;;;4985863;28;20050;-75
2022/05/28 08:36:27;;;;;;;10.45;8.32;;;15.90;99.90;;;;;;4983692;28;20074;-76
2022/05/28 08:38:55;;;;;;;9.25;8.10;;;15.90;99.90;;;;;;4973126;28;20057;-75
2022/05/28 08:41:27;;;;;;;9.73;8.77;;;16.00;99.90;;;;;;4939512;28;20046;-76
2022/05/28 08:44:05;;;;;;;11.02;8.85;;;16.10;99.90;;;;;;4972379;28;20054;-74
2022/05/28 08:46:37;;;;;;;8.98;8.18;;;16.10;99.90;;;;;;4969721;28;20051;-75
2022/05/28 08:49:08;;;;;;;9.63;8.43;;;16.10;99.90;;;;;;4968247;28;20054;-75
2022/05/28 08:51:41;;;;;;;9.20;8.20;;;16.20;99.90;;;;;;4972076;28;20058;-75
2022/05/28 08:54:25;;;;;;;9.75;8.48;;;16.30;99.90;;;;;;4972441;28;20113;-75
2022/05/28 08:56:58;;;;;;;12.43;7.97;;;16.30;99.90;;;;;;4972709;28;20051;-75
2022/05/28 08:59:32;;;;;;;9.30;8.48;;;16.40;99.90;;;;;;4972570;28;20050;-75
2022/05/28 09:02:00;;;;;;;9.88;7.97;;;16.60;99.90;;;;;;4955363;28;20051;-75
2022/05/28 09:04:33;;;;;;;9.13;8.23;;;16.80;99.90;;;;;;4939149;28;20039;-73
2022/05/28 09:07:07;;;;;;;8.60;7.72;;;16.90;99.90;;;;;;4938606;28;20522;-75
2022/05/28 09:09:41;;;;;;;11.60;9.15;;;17.20;99.90;;;;;;4979577;28;20054;-75
2022/05/28 09:12:15;;;;;;;10.98;8.20;;;17.50;99.90;;;;;;4991712;28;20061;-75
2022/05/28 09:14:43;;;;;;;9.05;8.13;;;18.00;99.90;;;;;;4984131;28;20061;-75
2022/05/28 09:17:25;;;;;;;7.95;7.25;;;18.40;99.90;;;;;;4954975;28;20054;-76
2022/05/28 09:19:56;;;;;;;12.97;7.83;;;18.50;99.90;;;;;;4953867;28;20061;-76
2022/05/28 09:22:25;;;;;;;8.13;7.43;;;18.50;99.90;;;;;;4972456;28;20206;-76
2022/05/28 09:24:53;;;;;;;8.63;7.82;;;18.50;99.90;;;;;;4954847;28;20043;-75
2022/05/28 09:27:35;;;;;;;11.95;8.35;;;18.40;99.90;;;;;;4972116;28;20109;-75
2022/05/28 09:30:18;;;;;;;9.20;8.23;;;18.20;99.90;;;;;;4971819;28;20515;-75
2022/05/28 09:33:09;;;;;;;8.25;7.55;;;18.00;99.90;;;;;;4972093;28;20039;-75
2022/05/28 09:35:57;;;;;;;7.25;6.57;;;17.90;99.90;;;;;;4954601;28;20525;-75
2022/05/28 09:38:34;;;;;;;7.38;6.50;;;17.90;99.90;;;;;;4938942;28;20444;-75
2022/05/28 09:41:40;;;;;;;7.18;6.57;;;17.70;99.90;;;;;;4972287;28;20050;-75
2022/05/28 09:44:23;;;;;;;9.20;7.30;;;17.40;99.90;;;;;;4956871;28;20047;-76
2022/05/28 09:46:51;;;;;;;8.68;7.43;;;17.10;99.90;;;;;;4972082;28;20578;-76
2022/05/28 09:49:22;;;;;;;8.35;6.38;;;17.00;99.90;;;;;;4970421;28;20051;-75
2022/05/28 09:51:56;;;;;;;10.05;6.85;;;16.90;99.90;;;;;;4954605;28;20149;-75
2022/05/28 09:54:27;;;;;;;9.07;6.63;;;16.90;99.90;;;;;;4954457;28;20597;-74
2022/05/28 09:56:58;;;;;;;6.70;6.13;;;16.90;99.90;;;;;;4954707;28;20051;-75
2022/05/28 09:59:34;;;;;;;10.65;6.63;;;16.80;99.90;;;;;;4971358;28;20062;-76
2022/05/28 10:02:09;;;;;;;7.80;5.70;;;16.70;99.90;;;;;;4954694;28;20051;-76
2022/05/28 10:04:57;;;;;;;58.35;44.90;;;16.70;99.90;;;;;;4971724;28;20051;-76
2022/05/28 10:07:34;;;;;;;6.53;5.53;;;16.70;99.90;;;;;;4954559;28;20500;-76
2022/05/28 10:10:02;;;;;;;6.38;5.72;;;16.60;99.90;;;;;;4982844;28;20054;-75
2022/05/28 10:12:32;;;;;;;7.00;5.88;;;16.60;99.90;;;;;;4990419;28;20050;-76
2022/05/28 10:15:09;;;;;;;10.57;6.50;;;16.60;99.90;;;;;;4956934;28;20482;-75
2022/05/28 10:17:38;;;;;;;6.65;6.05;;;16.50;99.90;;;;;;4990937;28;20046;-75
2022/05/28 10:20:27;;;;;;;8.05;5.85;;;16.50;99.90;;;;;;4982663;28;20234;-76
2022/05/28 10:22:57;;;;;;;9.48;5.85;;;16.60;99.90;;;;;;4974996;28;20046;-75
2022/05/28 10:25:33;;;;;;;7.50;5.55;;;16.60;99.90;;;;;;4974616;28;20138;-75
2022/05/28 10:28:00;;;;;;;5.35;4.95;;;16.60;99.90;;;;;;4974899;28;20538;-75
2022/05/28 10:30:35;;;;;;;6.75;5.40;;;16.60;99.90;;;;;;4973286;28;20054;-75
2022/05/28 10:33:09;;;;;;;5.75;5.25;;;16.60;99.90;;;;;;4975013;28;20150;-74
2022/05/28 10:35:37;;;;;;;7.28;5.22;;;16.60;99.90;;;;;;4974416;28;20058;-75
2022/05/28 10:38:15;;;;;;;5.43;4.93;;;16.60;99.90;;;;;;4956973;28;20434;-76
2022/05/28 10:40:50;;;;;;;6.70;5.82;;;16.50;99.90;;;;;;4974314;28;20078;-75
2022/05/28 10:43:27;;;;;;;6.20;5.13;;;16.50;99.90;;;;;;4974804;28;20058;-76
2022/05/28 10:46:07;;;;;;;6.00;5.50;;;16.30;99.90;;;;;;4974560;28;20066;-74
2022/05/28 10:48:49;;;;;;;6.53;5.78;;;16.10;99.90;;;;;;4975246;28;20063;-75
2022/05/28 10:51:22;;;;;;;5.80;5.18;;;15.80;99.90;;;;;;4956468;28;20058;-74
2022/05/28 10:54:20;;;;;;;6.50;5.18;;;15.70;99.90;;;;;;4940802;28;20082;-76
2022/05/28 10:56:54;;;;;;;5.97;5.47;;;15.80;99.90;;;;;;4974343;28;20415;-74
2022/05/28 10:59:47;;;;;;;5.18;4.78;;;15.90;99.90;;;;;;4940600;28;20047;-76
2022/05/28 11:03:01;;;;;;;6.10;4.93;;;16.10;99.90;;;;;;4973731;28;20062;-75
2022/05/28 11:06:03;;;;;;;6.00;4.55;;;16.20;99.90;;;;;;4954410;28;20046;-74
2022/05/28 11:08:42;;;;;;;4.85;4.40;;;16.20;99.90;;;;;;4975918;28;20058;-75
2022/05/28 11:11:27;;;;;;;4.50;4.15;;;16.40;99.90;;;;;;4972259;28;20054;-76
2022/05/28 11:14:17;;;;;;;5.80;5.30;;;16.60;99.90;;;;;;4973886;28;20051;-75
2022/05/28 11:17:05;;;;;;;9.10;5.68;;;16.90;99.90;;;;;;4974231;28;20067;-75
2022/05/28 11:19:52;;;;;;;7.30;5.28;;;17.10;99.90;;;;;;4956469;28;20051;-74
2022/05/28 11:22:43;;;;;;;6.50;5.68;;;17.40;99.90;;;;;;4974450;28;20074;-75
2022/05/28 11:25:18;;;;;;;8.13;5.85;;;17.70;99.90;;;;;;4973440;28;20083;-76
2022/05/28 11:28:07;;;;;;;8.00;5.75;;;17.90;99.90;;;;;;4956031;28;20061;-75
2022/05/28 11:30:40;;;;;;;8.45;4.95;;;18.30;99.90;;;;;;4972319;28;20393;-75
2022/05/28 11:33:11;;;;;;;;;;;18.70;99.90;;;;;;4973774;28;20061;-74
2022/05/28 11:35:44;;;;;;;8.73;4.82;;;19.20;99.90;;;;;;4973053;28;19926;-75
2022/05/28 11:38:21;;;;;;;5.25;4.72;;;19.80;99.90;;;;;;4938904;28;20059;-75
2022/05/28 11:41:01;;;;;;;6.88;6.15;;;20.40;96.50;;;;;;4972538;28;20050;-75
2022/05/28 11:43:40;;;;;;;6.35;5.90;;;21.20;95.30;;;;;;4954580;28;20469;-75
2022/05/28 11:46:21;;;;;;;6.25;5.35;;;21.80;93.10;;;;;;4972353;28;20059;-75
2022/05/28 11:51:58;;;;;;;5.30;4.80;;;22.20;85.80;;;;;;4973256;28;20129;-75
2022/05/28 11:54:33;;;;;;;6.43;5.40;;;21.80;84.50;;;;;;4972315;28;20059;-76
2022/05/28 11:57:05;;;;;;;6.15;5.28;;;21.20;87.10;;;;;;4955801;28;20511;-77
2022/05/28 11:59:34;;;;;;;7.43;5.10;;;20.60;88.60;;;;;;4972793;28;20077;-75
2022/05/28 12:02:07;;;;;;;4.95;4.65;;;20.20;92.30;;;;;;4972808;28;20491;-74
2022/05/28 12:04:40;;;;;;;7.30;5.35;;;19.90;91.20;;;;;;4972356;28;20082;-74
2022/05/28 12:07:13;;;;;;;5.53;5.00;;;19.80;92.00;;;;;;4972857;28;20047;-76
2022/05/28 12:09:45;;;;;;;8.88;4.38;;;19.90;93.40;;;;;;4981306;28;20058;-75
2022/05/28 12:12:22;;;;;;;6.87;4.37;;;20.10;92.80;;;;;;4992238;28;20050;-79
2022/05/28 12:15:04;;;;;;;4.63;4.28;;;20.60;93.80;;;;;;4983916;28;20287;-76
2022/05/28 12:17:32;;;;;;;7.75;4.47;;;20.80;91.50;;;;;;4972064;28;20063;-75
2022/05/28 12:20:04;;;;;;;4.32;3.65;;;20.90;90.80;;;;;;4955810;28;20089;-75
2022/05/28 12:22:35;;;;;;;;;;;20.90;84.70;;;;;;4974125;28;20146;-75
2022/05/28 12:25:20;;;;;;;4.47;3.53;;;20.70;87.90;;;;;;4955473;28;19926;-75
2022/05/28 12:28:08;;;;;;;3.15;2.85;;;20.70;90.80;;;;;;4939936;28;20145;-74
2022/05/28 12:30:53;;;;;;;3.55;2.83;;;20.70;90.90;;;;;;4972997;28;20054;-75
2022/05/28 12:33:27;;;;;;;3.28;2.80;;;20.60;88.90;;;;;;4973947;28;20482;-74
2022/05/28 12:36:08;;;;;;;3.40;3.10;;;20.40;90.00;;;;;;4939626;28;20051;-75
2022/05/28 12:38:52;;;;;;;3.83;3.28;;;20.20;91.50;;;;;;4973180;28;20059;-76
2022/05/28 12:41:24;;;;;;;4.00;3.58;;;20.10;90.30;;;;;;4939824;28;20062;-76
2022/05/28 12:44:04;;;;;;;6.03;3.28;;;20.20;90.60;;;;;;4955162;28;20054;-75
2022/05/28 12:46:43;;;;;;;4.00;3.50;;;20.60;87.60;;;;;;4955065;28;20081;-75
2022/05/28 12:49:20;;;;;;;3.72;3.20;;;21.60;85.00;;;;;;4956699;28;20149;-74
2022/05/28 12:52:24;;;;;;;2.70;2.13;;;22.10;80.90;;;;;;4988955;28;20054;-75
2022/05/28 12:55:07;;;;;;;2.25;2.05;;;22.30;79.80;;;;;;4952603;28;20057;-75
2022/05/28 12:57:37;;;;;;;2.85;2.55;;;22.10;78.60;;;;;;4971765;28;20062;-77
2022/05/28 13:00:12;;;;;;;5.30;2.25;;;22.00;77.20;;;;;;4967806;28;20057;-78
2022/05/28 13:02:43;;;;;;;3.30;2.08;;;22.30;79.90;;;;;;4963971;28;20145;-77
2022/05/28 13:05:14;;;;;;;2.95;1.80;;;22.80;73.90;;;;;;4968386;28;20059;-77
2022/05/28 13:07:57;;;;;;;2.63;2.38;;;23.70;70.50;;;;;;4982294;28;20054;-76